Terminal Aerodrome Forecast
Issued by NWS Jacksonville, FL

Home | Current Version | Previous Version | Text Only | Print | Product List | Glossary On
Versions: 1 2 3 4 5 6 7 8 9 10 11 12 13 14 15 16 17 18 19 20 21 22 23 24 25 26 27 28
000
FTUS42 KJAX 212320
TAFGNV
TAF
KGNV 212320Z 2200/2224 21012G25KT P6SM VCTS FEW035CB SCT050 BKN080
     FM220600 21010G15KT P6SM BKN025
     FM221000 19010G15KT P6SM BKN015
     FM221500 22018G28KT P6SM VCTS BKN025CB
      TEMPO 2215/2218 3SM -TSRA BKN020CB
     FM221800 20020KT P6SM VCTS OVC050CB
      TEMPO 2218/2221 3SM -TSRA SCT025CB BKN050
     FM222100 23023KT P6SM VCTS SCT025CB OVC050
      TEMPO 2221/2224 3SM -TSRA BKN050CB=

USA.gov is the U.S. government's official web portal to all federal, state and local government web resources and services.